sensor_id;sensor_type;location;lat;lon;timestamp;pressure;altitude;pressure_sealevel;temperature;humidity
41312;BME280;27061;41.648;24.568;2022-08-14T00:02:24;85680.41;;;17.82;67.54
41312;BME280;27061;41.648;24.568;2022-08-14T00:04:53;85675.25;;;17.88;67.31
41312;BME280;27061;41.648;24.568;2022-08-14T00:07:22;85645.97;;;17.69;67.63
41312;BME280;27061;41.648;24.568;2022-08-14T00:09:49;85605.03;;;17.42;67.67
41312;BME280;27061;41.648;24.568;2022-08-14T00:12:39;85662.50;;;17.91;67.92
41312;BME280;27061;41.648;24.568;2022-08-14T00:15:29;85664.56;;;17.93;67.86
41312;BME280;27061;41.648;24.568;2022-08-14T00:18:14;85631.03;;;17.74;67.73
41312;BME280;27061;41.648;24.568;2022-08-14T00:21:03;85635.09;;;17.94;66.99
41312;BME280;27061;41.648;24.568;2022-08-14T00:23:37;85651.41;;;18.06;67.29
41312;BME280;27061;41.648;24.568;2022-08-14T00:26:05;85647.00;;;17.95;67.65
41312;BME280;27061;41.648;24.568;2022-08-14T00:28:47;85646.88;;;17.80;69.07
41312;BME280;27061;41.648;24.568;2022-08-14T00:31:18;85642.66;;;17.81;68.76
41312;BME280;27061;41.648;24.568;2022-08-14T00:34:00;85625.09;;;17.82;68.74
41312;BME280;27061;41.648;24.568;2022-08-14T00:36:49;85628.16;;;17.76;69.11
41312;BME280;27061;41.648;24.568;2022-08-14T00:39:16;85626.94;;;17.71;69.09
41312;BME280;27061;41.648;24.568;2022-08-14T00:41:46;85632.06;;;17.67;69.18
41312;BME280;27061;41.648;24.568;2022-08-14T00:44:15;85622.13;;;17.70;68.25
41312;BME280;27061;41.648;24.568;2022-08-14T00:47:00;85621.69;;;17.80;68.42
41312;BME280;27061;41.648;24.568;2022-08-14T00:49:29;85620.69;;;17.87;67.40
41312;BME280;27061;41.648;24.568;2022-08-14T00:52:15;85616.09;;;17.80;68.24
41312;BME280;27061;41.648;24.568;2022-08-14T00:54:46;85616.09;;;17.80;68.21
41312;BME280;27061;41.648;24.568;2022-08-14T00:57:30;85606.84;;;17.83;67.48
41312;BME280;27061;41.648;24.568;2022-08-14T00:59:58;85601.34;;;17.81;67.44
41312;BME280;27061;41.648;24.568;2022-08-14T01:02:28;85560.78;;;17.47;68.29
41312;BME280;27061;41.648;24.568;2022-08-14T01:04:58;85571.81;;;17.68;68.27
41312;BME280;27061;41.648;24.568;2022-08-14T01:07:27;85549.41;;;17.51;69.06
41312;BME280;27061;41.648;24.568;2022-08-14T01:10:16;85599.13;;;17.84;69.00
41312;BME280;27061;41.648;24.568;2022-08-14T01:12:45;85596.25;;;17.86;68.89
41312;BME280;27061;41.648;24.568;2022-08-14T01:15:15;85594.72;;;17.89;68.92
41312;BME280;27061;41.648;24.568;2022-08-14T01:18:07;85580.47;;;17.78;68.34
41312;BME280;27061;41.648;24.568;2022-08-14T01:20:55;85590.13;;;17.98;67.84
41312;BME280;27061;41.648;24.568;2022-08-14T01:23:42;85583.25;;;17.95;67.96
41312;BME280;27061;41.648;24.568;2022-08-14T01:26:16;85584.63;;;17.96;68.30
41312;BME280;27061;41.648;24.568;2022-08-14T01:29:03;85578.59;;;17.89;67.80
41312;BME280;27061;41.648;24.568;2022-08-14T01:31:36;85583.84;;;17.98;67.36
41312;BME280;27061;41.648;24.568;2022-08-14T01:34:08;85583.25;;;17.95;67.67
41312;BME280;27061;41.648;24.568;2022-08-14T01:36:57;85586.38;;;18.04;67.62
41312;BME280;27061;41.648;24.568;2022-08-14T01:39:27;85585.91;;;17.99;68.05
41312;BME280;27061;41.648;24.568;2022-08-14T01:41:58;85574.34;;;18.07;67.73
41312;BME280;27061;41.648;24.568;2022-08-14T01:44:28;85566.31;;;17.66;69.10
41312;BME280;27061;41.648;24.568;2022-08-14T01:47:06;85564.94;;;17.65;68.73
41312;BME280;27061;41.648;24.568;2022-08-14T01:49:50;85573.84;;;17.86;67.91
41312;BME280;27061;41.648;24.568;2022-08-14T01:52:36;85588.84;;;17.95;67.92
41312;BME280;27061;41.648;24.568;2022-08-14T01:55:25;85579.84;;;17.92;68.01
41312;BME280;27061;41.648;24.568;2022-08-14T01:57:59;85567.88;;;17.61;69.40
41312;BME280;27061;41.648;24.568;2022-08-14T02:00:50;85567.91;;;17.77;68.88
41312;BME280;27061;41.648;24.568;2022-08-14T02:03:24;85541.88;;;17.47;69.36
41312;BME280;27061;41.648;24.568;2022-08-14T02:06:00;85551.84;;;17.42;69.56
41312;BME280;27061;41.648;24.568;2022-08-14T02:08:48;85574.88;;;17.78;68.46
41312;BME280;27061;41.648;24.568;2022-08-14T02:11:21;85572.91;;;17.91;67.69
41312;BME280;27061;41.648;24.568;2022-08-14T02:14:05;85577.25;;;17.72;69.20
41312;BME280;27061;41.648;24.568;2022-08-14T02:16:39;85585.91;;;17.66;69.68
41312;BME280;27061;41.648;24.568;2022-08-14T02:19:10;85550.88;;;17.67;68.44
41312;BME280;27061;41.648;24.568;2022-08-14T02:21:43;85577.06;;;17.76;68.73
41312;BME280;27061;41.648;24.568;2022-08-14T02:24:18;85569.25;;;17.62;69.59
41312;BME280;27061;41.648;24.568;2022-08-14T02:27:07;85573.09;;;17.71;69.00
41312;BME280;27061;41.648;24.568;2022-08-14T02:29:57;85567.59;;;17.69;69.33
41312;BME280;27061;41.648;24.568;2022-08-14T02:32:30;85564.69;;;17.71;69.09
41312;BME280;27061;41.648;24.568;2022-08-14T02:35:12;85532.63;;;17.34;69.46
41312;BME280;27061;41.648;24.568;2022-08-14T02:37:48;85564.19;;;17.66;69.24
41312;BME280;27061;41.648;24.568;2022-08-14T02:40:18;85539.31;;;17.58;68.39
41312;BME280;27061;41.648;24.568;2022-08-14T02:42:58;85537.78;;;17.44;69.09
41312;BME280;27061;41.648;24.568;2022-08-14T02:45:29;85553.84;;;17.63;69.02
41312;BME280;27061;41.648;24.568;2022-08-14T02:48:07;85556.56;;;17.65;69.38
41312;BME280;27061;41.648;24.568;2022-08-14T02:50:57;85523.13;;;17.44;69.22
41312;BME280;27061;41.648;24.568;2022-08-14T02:53:28;85549.50;;;17.66;68.88
41312;BME280;27061;41.648;24.568;2022-08-14T02:55:58;85538.19;;;17.51;68.77
41312;BME280;27061;41.648;24.568;2022-08-14T02:58:32;85528.44;;;17.50;68.50
41312;BME280;27061;41.648;24.568;2022-08-14T03:01:06;85544.72;;;17.62;68.63
41312;BME280;27061;41.648;24.568;2022-08-14T03:03:36;85551.13;;;17.77;67.91
41312;BME280;27061;41.648;24.568;2022-08-14T03:06:07;85520.56;;;17.54;68.02
41312;BME280;27061;41.648;24.568;2022-08-14T03:08:37;85497.53;;;17.37;68.29
41312;BME280;27061;41.648;24.568;2022-08-14T03:11:13;85519.22;;;17.53;68.21
41312;BME280;27061;41.648;24.568;2022-08-14T03:13:46;85528.88;;;17.56;68.24
41312;BME280;27061;41.648;24.568;2022-08-14T03:16:18;85510.97;;;17.49;67.99
41312;BME280;27061;41.648;24.568;2022-08-14T03:18:54;85532.63;;;17.68;67.76
41312;BME280;27061;41.648;24.568;2022-08-14T03:21:28;85529.91;;;17.66;67.65
41312;BME280;27061;41.648;24.568;2022-08-14T03:24:00;85529.38;;;17.61;67.72
41312;BME280;27061;41.648;24.568;2022-08-14T03:26:48;85531.34;;;17.65;68.21
41312;BME280;27061;41.648;24.568;2022-08-14T03:29:25;85538.53;;;17.60;68.86
41312;BME280;27061;41.648;24.568;2022-08-14T03:31:56;85525.31;;;17.58;68.82
41312;BME280;27061;41.648;24.568;2022-08-14T03:34:25;85537.72;;;17.63;68.62
41312;BME280;27061;41.648;24.568;2022-08-14T03:37:13;85524.81;;;17.53;68.78
41312;BME280;27061;41.648;24.568;2022-08-14T03:40:01;85508.03;;;17.37;69.12
41312;BME280;27061;41.648;24.568;2022-08-14T03:42:29;85524.66;;;17.58;68.47
41312;BME280;27061;41.648;24.568;2022-08-14T03:45:03;85511.16;;;17.45;68.79
41312;BME280;27061;41.648;24.568;2022-08-14T03:47:52;85516.00;;;17.47;69.34
41312;BME280;27061;41.648;24.568;2022-08-14T03:50:27;85541.44;;;17.74;69.10
41312;BME280;27061;41.648;24.568;2022-08-14T03:53:00;85536.88;;;17.67;68.75
41312;BME280;27061;41.648;24.568;2022-08-14T03:55:28;85545.59;;;17.75;68.57
41312;BME280;27061;41.648;24.568;2022-08-14T03:57:57;85548.91;;;17.80;68.50
41312;BME280;27061;41.648;24.568;2022-08-14T04:00:27;85515.81;;;17.51;68.41
41312;BME280;27061;41.648;24.568;2022-08-14T04:03:12;85541.53;;;17.89;68.53
41312;BME280;27061;41.648;24.568;2022-08-14T04:05:50;85522.81;;;17.69;68.55
41312;BME280;27061;41.648;24.568;2022-08-14T04:08:19;85535.25;;;17.72;68.99
41312;BME280;27061;41.648;24.568;2022-08-14T04:10:58;85539.06;;;17.81;69.17
41312;BME280;27061;41.648;24.568;2022-08-14T04:13:29;85544.66;;;17.81;69.48
41312;BME280;27061;41.648;24.568;2022-08-14T04:16:02;85548.91;;;17.80;69.63
41312;BME280;27061;41.648;24.568;2022-08-14T04:18:44;85540.25;;;17.86;69.40
41312;BME280;27061;41.648;24.568;2022-08-14T04:21:14;85541.59;;;17.87;69.64
41312;BME280;27061;41.648;24.568;2022-08-14T04:23:44;85528.81;;;17.75;70.20
41312;BME280;27061;41.648;24.568;2022-08-14T04:26:24;85525.59;;;17.69;70.03
41312;BME280;27061;41.648;24.568;2022-08-14T04:29:12;85521.25;;;17.72;70.00
41312;BME280;27061;41.648;24.568;2022-08-14T04:31:43;85544.13;;;17.93;70.11
41312;BME280;27061;41.648;24.568;2022-08-14T04:34:31;85517.00;;;17.73;70.36
41312;BME280;27061;41.648;24.568;2022-08-14T04:37:03;85534.28;;;17.94;70.11
41312;BME280;27061;41.648;24.568;2022-08-14T04:39:53;85541.16;;;17.97;70.53
41312;BME280;27061;41.648;24.568;2022-08-14T04:42:41;85538.38;;;17.97;70.64
41312;BME280;27061;41.648;24.568;2022-08-14T04:45:28;85539.53;;;18.02;70.66
41312;BME280;27061;41.648;24.568;2022-08-14T04:48:15;85533.38;;;18.00;70.43
41312;BME280;27061;41.648;24.568;2022-08-14T04:51:06;85539.53;;;18.02;70.94
41312;BME280;27061;41.648;24.568;2022-08-14T04:53:35;85531.25;;;18.00;70.80
41312;BME280;27061;41.648;24.568;2022-08-14T04:56:14;85524.28;;;17.99;70.77
41312;BME280;27061;41.648;24.568;2022-08-14T04:59:03;85529.88;;;17.99;70.65
41312;BME280;27061;41.648;24.568;2022-08-14T05:01:39;85529.88;;;17.99;70.93
41312;BME280;27061;41.648;24.568;2022-08-14T05:04:18;85518.09;;;17.97;71.06
41312;BME280;27061;41.648;24.568;2022-08-14T05:06:52;85531.06;;;18.04;70.62
41312;BME280;27061;41.648;24.568;2022-08-14T05:09:24;85518.31;;;18.07;71.01
41312;BME280;27061;41.648;24.568;2022-08-14T05:11:56;85519.69;;;18.08;71.40
41312;BME280;27061;41.648;24.568;2022-08-14T05:14:44;85520.72;;;18.01;72.28
41312;BME280;27061;41.648;24.568;2022-08-14T05:17:23;85520.22;;;17.96;71.93
41312;BME280;27061;41.648;24.568;2022-08-14T05:19:58;85504.75;;;17.97;72.19
41312;BME280;27061;41.648;24.568;2022-08-14T05:22:49;85518.31;;;18.07;72.43
41312;BME280;27061;41.648;24.568;2022-08-14T05:25:22;85518.16;;;18.11;72.56
41312;BME280;27061;41.648;24.568;2022-08-14T05:27:50;85478.38;;;17.92;71.47
41312;BME280;27061;41.648;24.568;2022-08-14T05:30:20;85518.94;;;18.24;69.69
41312;BME280;27061;41.648;24.568;2022-08-14T05:32:52;85496.31;;;18.14;70.00
41312;BME280;27061;41.648;24.568;2022-08-14T05:35:21;85495.63;;;18.13;71.50
41312;BME280;27061;41.648;24.568;2022-08-14T05:37:49;85521.50;;;18.31;72.61
41312;BME280;27061;41.648;24.568;2022-08-14T05:40:16;85513.16;;;18.28;72.34
41312;BME280;27061;41.648;24.568;2022-08-14T05:42:44;85481.13;;;18.09;72.58
41312;BME280;27061;41.648;24.568;2022-08-14T05:45:19;85522.38;;;18.42;72.31
41312;BME280;27061;41.648;24.568;2022-08-14T05:47:47;85520.66;;;18.49;71.47
41312;BME280;27061;41.648;24.568;2022-08-14T05:50:17;85500.44;;;18.32;70.38
41312;BME280;27061;41.648;24.568;2022-08-14T05:52:47;85515.44;;;18.55;70.09
41312;BME280;27061;41.648;24.568;2022-08-14T05:55:18;85484.09;;;18.36;66.81
41312;BME280;27061;41.648;24.568;2022-08-14T05:57:53;85512.88;;;18.66;68.38
41312;BME280;27061;41.648;24.568;2022-08-14T06:00:30;85519.84;;;18.67;67.84
41312;BME280;27061;41.648;24.568;2022-08-14T06:03:10;85511.03;;;18.60;68.58
41312;BME280;27061;41.648;24.568;2022-08-14T06:05:44;85525.06;;;18.75;68.56
41312;BME280;27061;41.648;24.568;2022-08-14T06:08:23;85520.63;;;18.80;67.78
41312;BME280;27061;41.648;24.568;2022-08-14T06:11:07;85520.53;;;18.82;67.92
41312;BME280;27061;41.648;24.568;2022-08-14T06:13:37;85518.22;;;18.87;69.80
41312;BME280;27061;41.648;24.568;2022-08-14T06:16:14;85505.63;;;18.86;69.52
41312;BME280;27061;41.648;24.568;2022-08-14T06:18:47;85521.69;;;18.87;70.14
41312;BME280;27061;41.648;24.568;2022-08-14T06:21:21;85517.44;;;18.88;69.61
41312;BME280;27061;41.648;24.568;2022-08-14T06:23:49;85524.81;;;18.96;68.95
41312;BME280;27061;41.648;24.568;2022-08-14T06:26:18;85507.78;;;18.85;68.18
41312;BME280;27061;41.648;24.568;2022-08-14T06:28:49;85515.34;;;19.04;66.19
41312;BME280;27061;41.648;24.568;2022-08-14T06:31:20;85496.38;;;18.89;66.13
41312;BME280;27061;41.648;24.568;2022-08-14T06:33:50;85519.09;;;19.13;65.83
41312;BME280;27061;41.648;24.568;2022-08-14T06:36:37;85512.22;;;19.10;65.67
41312;BME280;27061;41.648;24.568;2022-08-14T06:39:06;85478.94;;;18.87;65.78
41312;BME280;27061;41.648;24.568;2022-08-14T06:41:38;85487.75;;;19.08;64.50
41312;BME280;27061;41.648;24.568;2022-08-14T06:44:27;85507.97;;;19.25;63.83
41312;BME280;27061;41.648;24.568;2022-08-14T06:47:00;85510.56;;;19.29;67.30
41312;BME280;27061;41.648;24.568;2022-08-14T06:49:29;85508.66;;;19.26;68.65
41312;BME280;27061;41.648;24.568;2022-08-14T06:52:11;85514.72;;;19.30;68.82
41312;BME280;27061;41.648;24.568;2022-08-14T06:54:44;85510.75;;;19.40;66.69
41312;BME280;27061;41.648;24.568;2022-08-14T06:57:11;85505.13;;;19.40;64.54
41312;BME280;27061;41.648;24.568;2022-08-14T06:59:40;85509.22;;;19.43;65.87
41312;BME280;27061;41.648;24.568;2022-08-14T07:02:08;85498.28;;;19.37;66.48
41312;BME280;27061;41.648;24.568;2022-08-14T07:04:56;85512.91;;;19.54;64.09
41312;BME280;27061;41.648;24.568;2022-08-14T07:07:49;85508.81;;;19.51;64.29
41312;BME280;27061;41.648;24.568;2022-08-14T07:10:17;85497.59;;;19.51;64.17
41312;BME280;27061;41.648;24.568;2022-08-14T07:12:45;85513.38;;;19.59;64.61
41312;BME280;27061;41.648;24.568;2022-08-14T07:15:33;85503.13;;;19.53;63.66
41312;BME280;27061;41.648;24.568;2022-08-14T07:18:08;85515.41;;;19.60;64.93
41312;BME280;27061;41.648;24.568;2022-08-14T07:20:38;85499.25;;;19.46;65.48
41312;BME280;27061;41.648;24.568;2022-08-14T07:23:09;85501.66;;;19.54;63.96
41312;BME280;27061;41.648;24.568;2022-08-14T07:25:48;85492.94;;;19.46;64.75
41312;BME280;27061;41.648;24.568;2022-08-14T07:28:23;85507.56;;;19.63;66.80
41312;BME280;27061;41.648;24.568;2022-08-14T07:30:54;85486.75;;;19.43;67.17
41312;BME280;27061;41.648;24.568;2022-08-14T07:33:35;85520.03;;;19.66;68.57
41312;BME280;27061;41.648;24.568;2022-08-14T07:36:10;85520.03;;;19.66;70.01
41312;BME280;27061;41.648;24.568;2022-08-14T07:38:58;85515.09;;;19.66;70.49
41312;BME280;27061;41.648;24.568;2022-08-14T07:41:29;85524.00;;;19.71;69.25
41312;BME280;27061;41.648;24.568;2022-08-14T07:44:02;85523.03;;;19.77;69.18
41312;BME280;27061;41.648;24.568;2022-08-14T07:46:50;85524.47;;;19.76;68.28
41312;BME280;27061;41.648;24.568;2022-08-14T07:49:18;85520.03;;;19.81;68.09
41312;BME280;27061;41.648;24.568;2022-08-14T07:51:50;85502.41;;;19.67;67.06
41312;BME280;27061;41.648;24.568;2022-08-14T07:54:18;85529.50;;;19.88;66.61
41312;BME280;27061;41.648;24.568;2022-08-14T07:56:59;85517.00;;;19.85;66.34
41312;BME280;27061;41.648;24.568;2022-08-14T07:59:39;85523.19;;;19.87;65.60
41312;BME280;27061;41.648;24.568;2022-08-14T08:02:16;85531.03;;;19.85;65.54
41312;BME280;27061;41.648;24.568;2022-08-14T08:04:50;85518.25;;;19.88;65.55
41312;BME280;27061;41.648;24.568;2022-08-14T08:07:26;85516.19;;;20.01;64.57
41312;BME280;27061;41.648;24.568;2022-08-14T08:09:59;85513.78;;;19.93;67.64
41312;BME280;27061;41.648;24.568;2022-08-14T08:13:13;85516.03;;;19.90;68.63
41312;BME280;27061;41.648;24.568;2022-08-14T08:15:44;85514.06;;;20.01;67.44
41312;BME280;27061;41.648;24.568;2022-08-14T08:18:15;85508.00;;;20.09;65.42
41312;BME280;27061;41.648;24.568;2022-08-14T08:20:55;85502.84;;;20.14;67.07
41312;BME280;27061;41.648;24.568;2022-08-14T08:23:29;85503.66;;;20.13;69.73
41312;BME280;27061;41.648;24.568;2022-08-14T08:26:17;85487.44;;;20.13;65.45
41312;BME280;27061;41.648;24.568;2022-08-14T08:28:57;85500.88;;;20.25;66.07
41312;BME280;27061;41.648;24.568;2022-08-14T08:31:25;85482.63;;;20.12;66.87
41312;BME280;27061;41.648;24.568;2022-08-14T08:34:03;85506.91;;;20.17;65.14
41312;BME280;27061;41.648;24.568;2022-08-14T08:36:39;85497.06;;;20.31;63.82
41312;BME280;27061;41.648;24.568;2022-08-14T08:39:13;85483.97;;;20.40;64.65
41312;BME280;27061;41.648;24.568;2022-08-14T08:41:49;85497.34;;;20.39;65.11
41312;BME280;27061;41.648;24.568;2022-08-14T08:44:27;85489.25;;;20.46;66.96
41312;BME280;27061;41.648;24.568;2022-08-14T08:47:00;85474.28;;;20.37;67.11
41312;BME280;27061;41.648;24.568;2022-08-14T08:49:41;85477.03;;;20.52;63.50
41312;BME280;27061;41.648;24.568;2022-08-14T08:52:28;85482.31;;;20.58;68.21
41312;BME280;27061;41.648;24.568;2022-08-14T08:54:59;85473.84;;;20.45;67.93
41312;BME280;27061;41.648;24.568;2022-08-14T08:57:34;85472.88;;;20.63;66.62
41312;BME280;27061;41.648;24.568;2022-08-14T09:00:17;85447.31;;;20.42;69.92
41312;BME280;27061;41.648;24.568;2022-08-14T09:02:57;85460.72;;;20.67;63.26
41312;BME280;27061;41.648;24.568;2022-08-14T09:05:33;85452.19;;;20.69;65.32
41312;BME280;27061;41.648;24.568;2022-08-14T09:08:12;85459.41;;;20.78;65.55
41312;BME280;27061;41.648;24.568;2022-08-14T09:11:01;85455.59;;;20.84;67.74
41312;BME280;27061;41.648;24.568;2022-08-14T09:13:51;85467.75;;;20.93;67.72
41312;BME280;27061;41.648;24.568;2022-08-14T09:16:22;85464.72;;;20.97;68.13
41312;BME280;27061;41.648;24.568;2022-08-14T09:18:52;85458.53;;;21.07;69.65
41312;BME280;27061;41.648;24.568;2022-08-14T09:21:21;85458.97;;;21.12;68.98
41312;BME280;27061;41.648;24.568;2022-08-14T09:23:53;85426.09;;;20.96;66.77
41312;BME280;27061;41.648;24.568;2022-08-14T09:26:43;85434.00;;;21.18;61.74
41312;BME280;27061;41.648;24.568;2022-08-14T09:29:17;85421.38;;;21.17;68.31
41312;BME280;27061;41.648;24.568;2022-08-14T09:31:54;85432.19;;;21.26;68.74
41312;BME280;27061;41.648;24.568;2022-08-14T09:40:03;85437.81;;;21.38;59.22
41312;BME280;27061;41.648;24.568;2022-08-14T09:45:47;85420.94;;;21.26;63.64
41312;BME280;27061;41.648;24.568;2022-08-14T09:48:22;85435.78;;;21.37;58.33
41312;BME280;27061;41.648;24.568;2022-08-14T09:50:57;85450.06;;;21.33;60.23
41312;BME280;27061;41.648;24.568;2022-08-14T09:56:42;85430.03;;;21.26;60.52
41312;BME280;27061;41.648;24.568;2022-08-14T09:59:26;85427.66;;;21.31;60.27
41312;BME280;27061;41.648;24.568;2022-08-14T10:02:04;85434.41;;;21.36;58.03
41312;BME280;27061;41.648;24.568;2022-08-14T10:04:35;85401.44;;;21.09;59.51
41312;BME280;27061;41.648;24.568;2022-08-14T10:07:12;85442.97;;;21.34;59.55
41312;BME280;27061;41.648;24.568;2022-08-14T10:09:47;85420.00;;;21.16;56.42
41312;BME280;27061;41.648;24.568;2022-08-14T10:12:42;85459.97;;;21.32;58.61
41312;BME280;27061;41.648;24.568;2022-08-14T10:15:22;85442.53;;;21.29;57.29
41312;BME280;27061;41.648;24.568;2022-08-14T10:18:09;85448.84;;;21.17;59.54
41312;BME280;27061;41.648;24.568;2022-08-14T10:20:54;85443.00;;;21.21;58.77
41312;BME280;27061;41.648;24.568;2022-08-14T10:23:44;85384.69;;;20.69;59.37
41312;BME280;27061;41.648;24.568;2022-08-14T10:26:19;85438.38;;;21.15;60.05
41312;BME280;27061;41.648;24.568;2022-08-14T10:29:28;85424.53;;;21.24;59.72
41312;BME280;27061;41.648;24.568;2022-08-14T10:32:00;85408.06;;;21.16;59.26
41312;BME280;27061;41.648;24.568;2022-08-14T10:34:45;85433.06;;;21.35;63.84
41312;BME280;27061;41.648;24.568;2022-08-14T10:37:18;85407.19;;;21.19;62.42
41312;BME280;27061;41.648;24.568;2022-08-14T10:39:59;85439.59;;;21.44;62.78
41312;BME280;27061;41.648;24.568;2022-08-14T10:42:48;85417.06;;;21.31;63.67
41312;BME280;27061;41.648;24.568;2022-08-14T10:45:21;85443.88;;;21.43;64.65
41312;BME280;27061;41.648;24.568;2022-08-14T10:47:51;85456.25;;;21.48;65.24
41312;BME280;27061;41.648;24.568;2022-08-14T10:50:41;85440.16;;;21.34;65.69
41312;BME280;27061;41.648;24.568;2022-08-14T10:53:26;85421.81;;;21.22;64.50
41312;BME280;27061;41.648;24.568;2022-08-14T10:55:59;85470.91;;;21.38;65.67
41312;BME280;27061;41.648;24.568;2022-08-14T10:58:31;85477.44;;;21.22;65.80
41312;BME280;27061;41.648;24.568;2022-08-14T11:01:01;85456.38;;;20.95;66.58
41312;BME280;27061;41.648;24.568;2022-08-14T11:03:42;85484.84;;;21.14;66.79
41312;BME280;27061;41.648;24.568;2022-08-14T11:06:23;85456.03;;;21.01;66.33
41312;BME280;27061;41.648;24.568;2022-08-14T11:08:53;85491.50;;;21.22;66.46
41312;BME280;27061;41.648;24.568;2022-08-14T11:11:24;85476.72;;;21.08;65.60
41312;BME280;27061;41.648;24.568;2022-08-14T11:14:03;85491.50;;;21.22;65.18
41312;BME280;27061;41.648;24.568;2022-08-14T11:16:36;85497.47;;;21.15;65.27
41312;BME280;27061;41.648;24.568;2022-08-14T11:19:07;85449.97;;;20.84;66.14
41312;BME280;27061;41.648;24.568;2022-08-14T11:21:38;85495.94;;;21.18;65.18
41312;BME280;27061;41.648;24.568;2022-08-14T11:24:13;85494.53;;;21.17;65.30
41312;BME280;27061;41.648;24.568;2022-08-14T11:27:03;85502.63;;;21.11;65.10
41312;BME280;27061;41.648;24.568;2022-08-14T11:29:32;85502.50;;;21.00;65.92
41312;BME280;27061;41.648;24.568;2022-08-14T11:32:04;85490.56;;;20.87;66.94
41312;BME280;27061;41.648;24.568;2022-08-14T11:34:36;85517.72;;;20.93;66.71
41312;BME280;27061;41.648;24.568;2022-08-14T11:37:09;85499.25;;;20.83;67.02
41312;BME280;27061;41.648;24.568;2022-08-14T11:39:49;85494.75;;;20.75;65.41
41312;BME280;27061;41.648;24.568;2022-08-14T11:42:23;85452.25;;;20.41;65.88
41312;BME280;27061;41.648;24.568;2022-08-14T11:45:14;85498.78;;;20.66;66.52
41312;BME280;27061;41.648;24.568;2022-08-14T11:47:45;85514.75;;;20.69;64.95
41312;BME280;27061;41.648;24.568;2022-08-14T11:50:33;85499.88;;;20.58;65.42
41312;BME280;27061;41.648;24.568;2022-08-14T11:53:20;85520.22;;;20.59;64.25
41312;BME280;27061;41.648;24.568;2022-08-14T11:55:58;85481.56;;;20.32;65.13
41312;BME280;27061;41.648;24.568;2022-08-14T11:58:35;85496.09;;;20.36;65.43
41312;BME280;27061;41.648;24.568;2022-08-14T12:01:06;85494.53;;;20.39;64.33
41312;BME280;27061;41.648;24.568;2022-08-14T12:03:46;85496.03;;;20.51;63.22
41312;BME280;27061;41.648;24.568;2022-08-14T12:06:25;85485.09;;;20.45;62.81
41312;BME280;27061;41.648;24.568;2022-08-14T12:09:06;85477.50;;;20.29;64.92
41312;BME280;27061;41.648;24.568;2022-08-14T12:11:42;85476.50;;;20.34;65.88
41312;BME280;27061;41.648;24.568;2022-08-14T12:14:18;85451.38;;;20.18;64.05
41312;BME280;27061;41.648;24.568;2022-08-14T12:17:06;85447.72;;;19.66;64.96
41312;BME280;27061;41.648;24.568;2022-08-14T12:19:45;85462.75;;;19.88;66.43
41312;BME280;27061;41.648;24.568;2022-08-14T12:25:17;85464.97;;;19.86;68.23
41312;BME280;27061;41.648;24.568;2022-08-14T12:27:48;85469.47;;;19.81;67.69
41312;BME280;27061;41.648;24.568;2022-08-14T12:30:41;85446.72;;;19.72;69.12
41312;BME280;27061;41.648;24.568;2022-08-14T12:33:29;85474.56;;;19.91;69.50
41312;BME280;27061;41.648;24.568;2022-08-14T12:36:02;85477.38;;;19.91;67.95
41312;BME280;27061;41.648;24.568;2022-08-14T12:38:39;85481.41;;;19.94;69.57
41312;BME280;27061;41.648;24.568;2022-08-14T12:41:22;85460.53;;;19.91;69.70
41312;BME280;27061;41.648;24.568;2022-08-14T12:44:00;85457.38;;;19.97;70.95
41312;BME280;27061;41.648;24.568;2022-08-14T12:46:37;85452.91;;;20.02;71.68
41312;BME280;27061;41.648;24.568;2022-08-14T12:49:14;85434.34;;;19.94;69.14
41312;BME280;27061;41.648;24.568;2022-08-14T12:52:09;85452.50;;;20.10;70.05
41312;BME280;27061;41.648;24.568;2022-08-14T12:54:43;85461.16;;;20.19;66.97
41312;BME280;27061;41.648;24.568;2022-08-14T13:00:15;85465.19;;;20.09;68.76
41312;BME280;27061;41.648;24.568;2022-08-14T13:02:52;85479.69;;;20.14;69.28
41312;BME280;27061;41.648;24.568;2022-08-14T13:05:23;85492.09;;;20.19;68.99
41312;BME280;27061;41.648;24.568;2022-08-14T13:07:54;85479.28;;;20.22;68.29
41312;BME280;27061;41.648;24.568;2022-08-14T13:10:26;85486.94;;;20.23;68.60
41312;BME280;27061;41.648;24.568;2022-08-14T13:13:16;85484.69;;;20.26;68.80
41312;BME280;27061;41.648;24.568;2022-08-14T13:15:47;85477.47;;;20.16;68.96
41312;BME280;27061;41.648;24.568;2022-08-14T13:18:25;85492.97;;;20.15;69.34
41312;BME280;27061;41.648;24.568;2022-08-14T13:20:58;85492.75;;;20.19;69.37
41312;BME280;27061;41.648;24.568;2022-08-14T13:23:33;85419.75;;;19.64;67.19
41312;BME280;27061;41.648;24.568;2022-08-14T13:26:02;85487.34;;;20.15;68.46
41312;BME280;27061;41.648;24.568;2022-08-14T13:28:33;85473.13;;;20.04;68.32
41312;BME280;27061;41.648;24.568;2022-08-14T13:31:25;85481.41;;;20.21;69.06
41312;BME280;27061;41.648;24.568;2022-08-14T13:33:57;85450.38;;;20.10;68.81
41312;BME280;27061;41.648;24.568;2022-08-14T13:36:28;85439.66;;;20.00;69.10
41312;BME280;27061;41.648;24.568;2022-08-14T13:39:19;85479.97;;;20.22;68.28
41312;BME280;27061;41.648;24.568;2022-08-14T13:41:47;85453.56;;;20.02;65.98
41312;BME280;27061;41.648;24.568;2022-08-14T13:44:25;85482.44;;;20.28;65.56
41312;BME280;27061;41.648;24.568;2022-08-14T13:46:53;85479.72;;;20.26;65.91
41312;BME280;27061;41.648;24.568;2022-08-14T13:49:22;85482.25;;;20.32;66.46
41312;BME280;27061;41.648;24.568;2022-08-14T13:51:57;85475.84;;;20.34;65.87
41312;BME280;27061;41.648;24.568;2022-08-14T13:54:28;85471.56;;;20.35;66.34
41312;BME280;27061;41.648;24.568;2022-08-14T13:57:00;85467.19;;;20.38;65.75
41312;BME280;27061;41.648;24.568;2022-08-14T13:59:33;85436.78;;;20.28;65.16